GSIXC EGPH-EGPN

Flight info

Callsign GSIXC
Flight time N/A
Altitude 2500
Route DEPT VIA KELTY VRP DCT
Aircraft DC6A/M-SDFGRY/S

Departure

Time 2026-04-23 17:03
Airport Edinburgh Airport (EGPH)

Arrival

Time N/A
Airport Dundee Airport (EGPN)
Time Latitude Longitude Altitude Speed Heading
2026-04-23 16:34 55.94749 -3.34624 107 ft 0 kts 149°
2026-04-23 16:51 55.94749 -3.34625 107 ft 1 kts 149°
2026-04-23 16:51 55.94769 -3.34647 106 ft 4 kts 149°
2026-04-23 16:51 55.94791 -3.34670 106 ft 2 kts 162°
2026-04-23 16:52 55.94792 -3.34671 106 ft 0 kts 173°
2026-04-23 16:52 55.94789 -3.34671 106 ft 1 kts 200°
2026-04-23 16:52 55.94783 -3.34684 106 ft 0 kts 239°
2026-04-23 16:54 55.94768 -3.34736 107 ft 10 kts 250°
2026-04-23 16:54 55.94803 -3.34871 107 ft 17 kts 310°
2026-04-23 16:55 55.94866 -3.35085 107 ft 21 kts 298°
2026-04-23 16:55 55.94934 -3.35302 107 ft 19 kts 299°
2026-04-23 16:55 55.94998 -3.35512 107 ft 20 kts 298°
2026-04-23 16:55 55.95067 -3.35734 107 ft 22 kts 303°
2026-04-23 16:56 55.95144 -3.35916 107 ft 15 kts 321°
2026-04-23 16:56 55.95206 -3.36020 107 ft 11 kts 291°
2026-04-23 16:56 55.95187 -3.36128 107 ft 11 kts 238°
2026-04-23 16:56 55.95137 -3.36275 107 ft 16 kts 239°
2026-04-23 16:57 55.95069 -3.36473 107 ft 21 kts 239°
2026-04-23 16:57 55.94987 -3.36712 106 ft 24 kts 238°
2026-04-23 16:57 55.94896 -3.36980 107 ft 25 kts 239°
2026-04-23 16:57 55.94813 -3.37227 107 ft 20 kts 238°
2026-04-23 16:58 55.94741 -3.37441 106 ft 21 kts 239°
2026-04-23 16:58 55.94666 -3.37663 107 ft 20 kts 238°
2026-04-23 16:58 55.94601 -3.37851 106 ft 17 kts 240°
2026-04-23 16:58 55.94611 -3.37972 107 ft 8 kts 326°
2026-04-23 16:59 55.94619 -3.37982 107 ft 0 kts 330°
2026-04-23 17:01 55.94621 -3.37984 107 ft 1 kts 330°
2026-04-23 17:01 55.94649 -3.38013 107 ft 8 kts 330°
2026-04-23 17:01 55.94709 -3.38064 109 ft 8 kts 354°
2026-04-23 17:02 55.94729 -3.38049 109 ft 4 kts 52°
2026-04-23 17:02 55.94734 -3.38033 109 ft 0 kts 58°
2026-04-23 17:02 55.94766 -3.37944 110 ft 29 kts 57°
2026-04-23 17:02 55.94998 -3.37282 135 ft 92 kts 58°
2026-04-23 17:03 55.95394 -3.36138 365 ft 123 kts 58°
2026-04-23 17:03 55.95899 -3.34677 743 ft 150 kts 59°
2026-04-23 17:03 55.96641 -3.33379 1206 ft 157 kts 27°
2026-04-23 17:03 55.97741 -3.33340 1339 ft 167 kts 345°
2026-04-23 17:04 55.98632 -3.34694 1384 ft 181 kts 298°
2026-04-23 17:04 55.98953 -3.36867 1418 ft 178 kts 292°
2026-04-23 17:04 55.99659 -3.38644 1424 ft 177 kts 325°